createdAt,value
2023-03-22T00:01:30.446Z,55.65
2023-03-22T00:03:58.261Z,46.40
2023-03-22T00:06:26.079Z,59.03
2023-03-22T00:08:54.492Z,61.00
2023-03-22T00:11:24.955Z,58.90
2023-03-22T00:13:53.106Z,60.45
2023-03-22T00:16:21.240Z,60.67
2023-03-22T00:18:48.648Z,60.70
2023-03-22T00:21:16.876Z,60.97
2023-03-22T00:23:44.887Z,55.95
2023-03-22T00:26:13.421Z,61.35
2023-03-22T00:28:41.824Z,62.70
2023-03-22T00:31:10.383Z,61.85
2023-03-22T00:33:37.621Z,80.97
2023-03-22T00:36:08.981Z,62.92
2023-03-22T00:38:42.652Z,55.50
2023-03-22T00:41:15.933Z,49.78
2023-03-22T00:43:46.179Z,52.92
2023-03-22T00:46:15.516Z,62.10
2023-03-22T00:48:43.361Z,57.50
2023-03-22T00:51:11.526Z,72.18
2023-03-22T00:53:42.850Z,58.17
2023-03-22T00:56:15.375Z,58.55
2023-03-22T00:58:46.415Z,64.50
2023-03-22T01:01:14.588Z,61.47
2023-03-22T01:03:43.801Z,61.78
2023-03-22T01:06:14.860Z,56.92
2023-03-22T01:08:42.518Z,65.18
2023-03-22T01:11:10.455Z,80.82
2023-03-22T01:13:38.174Z,63.65
2023-03-22T01:16:07.145Z,60.72
2023-03-22T01:18:35.653Z,64.05
2023-03-22T01:21:03.425Z,57.28
2023-03-22T01:23:31.295Z,66.93
2023-03-22T01:25:59.624Z,61.15
2023-03-22T01:28:28.467Z,57.45
2023-03-22T01:30:56.318Z,65.68
2023-03-22T01:33:23.590Z,65.82
2023-03-22T01:35:52.042Z,59.88
2023-03-22T01:38:21.114Z,62.28
2023-03-22T01:40:53.776Z,71.90
2023-03-22T01:43:21.718Z,56.95
2023-03-22T01:45:53.849Z,56.78
2023-03-22T01:48:26.634Z,52.42
2023-03-22T01:51:09.303Z,59.70
2023-03-22T01:53:59.848Z,78.18
2023-03-22T01:56:32.144Z,63.08
2023-03-22T01:59:00.509Z,60.03
2023-03-22T02:01:37.366Z,55.22
2023-03-22T02:04:19.479Z,62.15
2023-03-22T02:06:47.887Z,62.67
2023-03-22T02:09:21.397Z,84.60
2023-03-22T02:11:54.723Z,60.83
2023-03-22T02:15:21.744Z,66.05
2023-03-22T02:18:49.985Z,50.92
2023-03-22T02:22:04.058Z,53.85
2023-03-22T02:24:55.015Z,73.78
2023-03-22T02:27:50.738Z,65.03
2023-03-22T02:30:58.294Z,73.25
2023-03-22T02:33:58.998Z,66.72
2023-03-22T02:36:34.092Z,67.32
2023-03-22T02:39:39.392Z,73.47
2023-03-22T02:42:31.069Z,57.78
2023-03-22T02:45:34.310Z,62.38
2023-03-22T02:48:11.092Z,74.43
2023-03-22T02:50:44.076Z,52.70
2023-03-22T02:53:26.709Z,68.57
2023-03-22T02:57:00.555Z,67.18
2023-03-22T02:59:31.254Z,55.20
2023-03-22T03:02:02.484Z,52.72
2023-03-22T03:04:35.637Z,59.88
2023-03-22T03:07:08.906Z,53.38
2023-03-22T03:09:38.678Z,56.47
2023-03-22T03:12:18.939Z,61.17
2023-03-22T03:17:24.423Z,72.03
2023-03-22T03:20:10.581Z,66.93
2023-03-22T03:22:59.693Z,65.38
2023-03-22T03:25:45.761Z,67.20
2023-03-22T03:29:23.225Z,52.88
2023-03-22T03:32:25.069Z,51.08
2023-03-22T03:35:06.872Z,44.40
2023-03-22T03:37:40.761Z,41.10
2023-03-22T03:40:15.723Z,43.53
2023-03-22T03:42:53.351Z,46.40
2023-03-22T03:45:21.597Z,35.38
2023-03-22T03:47:56.395Z,42.72
2023-03-22T03:50:26.071Z,36.47
2023-03-22T03:52:55.504Z,37.95
2023-03-22T03:55:24.113Z,44.35
2023-03-22T03:57:51.499Z,51.63
2023-03-22T04:00:19.330Z,33.72
2023-03-22T04:03:18.676Z,37.60
2023-03-22T04:06:05.030Z,29.60
2023-03-22T04:08:36.792Z,30.17
2023-03-22T04:11:04.513Z,41.47
2023-03-22T04:13:32.309Z,40.40
2023-03-22T04:16:03.344Z,31.08
2023-03-22T04:18:35.029Z,39.75
2023-03-22T04:21:07.766Z,36.42
2023-03-22T04:23:46.098Z,31.27
2023-03-22T04:26:13.680Z,23.00
2023-03-22T04:28:52.952Z,26.98
2023-03-22T04:31:20.413Z,28.80
2023-03-22T04:33:54.824Z,30.15
2023-03-22T04:36:38.929Z,24.52
2023-03-22T04:39:35.583Z,30.90
2023-03-22T04:42:29.033Z,28.17
2023-03-22T04:45:19.060Z,27.25
2023-03-22T04:47:53.563Z,30.88
2023-03-22T04:50:21.124Z,41.38
2023-03-22T04:52:52.637Z,26.38
2023-03-22T04:55:20.227Z,28.55
2023-03-22T04:57:47.543Z,22.20
2023-03-22T05:00:16.625Z,27.85
2023-03-22T05:02:44.400Z,21.88
2023-03-22T05:05:21.704Z,25.63
2023-03-22T05:07:50.587Z,29.63
2023-03-22T05:10:18.933Z,27.52
2023-03-22T05:12:46.562Z,23.23
2023-03-22T05:15:23.986Z,49.45
2023-03-22T05:17:52.916Z,31.60
2023-03-22T05:20:20.460Z,25.27
2023-03-22T05:22:56.344Z,14.65
2023-03-22T05:25:25.836Z,15.07
2023-03-22T05:27:53.741Z,15.73
2023-03-22T05:30:35.149Z,13.88
2023-03-22T05:33:09.608Z,9.38
2023-03-22T05:35:42.921Z,7.50
2023-03-22T05:38:11.055Z,8.77
2023-03-22T05:40:44.178Z,6.97
2023-03-22T05:43:11.735Z,16.00
2023-03-22T05:45:45.142Z,16.33
2023-03-22T05:48:29.632Z,11.00
2023-03-22T05:50:56.894Z,13.82
2023-03-22T05:53:24.224Z,24.15
2023-03-22T05:56:00.180Z,31.30
2023-03-22T05:58:31.170Z,19.02
2023-03-22T06:01:10.956Z,17.00
2023-03-22T06:03:47.994Z,13.43
2023-03-22T06:06:47.522Z,11.07
2023-03-22T06:09:30.877Z,11.27
2023-03-22T06:11:59.115Z,12.90
2023-03-22T06:14:26.282Z,15.82
2023-03-22T06:17:05.290Z,17.98
2023-03-22T06:19:32.689Z,16.00
2023-03-22T06:22:02.943Z,74.55
2023-03-22T06:24:32.179Z,62.03
2023-03-22T06:26:59.957Z,125.25
2023-03-22T06:29:28.589Z,128.15
2023-03-22T06:31:58.771Z,48.00
2023-03-22T06:34:26.579Z,32.83
2023-03-22T06:36:53.951Z,20.75
2023-03-22T06:39:28.408Z,12.82
2023-03-22T06:41:55.577Z,13.23
2023-03-22T06:44:23.525Z,26.35
2023-03-22T06:46:51.099Z,16.90
2023-03-22T06:49:33.370Z,24.02
2023-03-22T06:52:01.116Z,26.80
2023-03-22T06:54:28.752Z,25.83
2023-03-22T06:56:55.938Z,24.48
2023-03-22T06:59:24.712Z,33.00
2023-03-22T07:01:52.214Z,36.88
2023-03-22T07:04:19.912Z,19.70
2023-03-22T07:06:48.517Z,17.67
2023-03-22T07:09:16.328Z,17.95
2023-03-22T07:11:45.946Z,12.18
2023-03-22T07:14:13.148Z,12.13
2023-03-22T07:17:18.774Z,20.23
2023-03-22T07:19:46.544Z,44.47
2023-03-22T07:22:14.921Z,37.63
2023-03-22T07:24:55.757Z,43.33
2023-03-22T07:27:25.898Z,26.85
2023-03-22T07:29:53.708Z,19.50
2023-03-22T07:32:21.145Z,14.80
2023-03-22T07:35:03.209Z,8.45
2023-03-22T07:37:30.734Z,9.45
2023-03-22T07:39:58.368Z,10.70
2023-03-22T07:42:30.635Z,13.18
2023-03-22T07:45:36.316Z,14.15
2023-03-22T07:48:36.477Z,9.93
2023-03-22T07:51:30.104Z,8.30
2023-03-22T07:53:58.520Z,13.70
2023-03-22T07:56:25.819Z,14.50
2023-03-22T07:58:53.641Z,15.65
2023-03-22T08:01:20.992Z,13.05
2023-03-22T08:04:07.923Z,30.15
2023-03-22T08:06:58.064Z,29.60
2023-03-22T08:09:26.214Z,29.67
2023-03-22T08:11:53.505Z,26.23
2023-03-22T08:14:30.596Z,17.60
2023-03-22T08:17:01.881Z,24.42
2023-03-22T08:19:29.230Z,150.27
2023-03-22T08:21:56.437Z,94.22
2023-03-22T08:24:42.159Z,72.80
2023-03-22T08:27:15.673Z,37.05
2023-03-22T08:29:47.928Z,23.83
2023-03-22T08:32:16.411Z,24.58
2023-03-22T08:34:44.098Z,22.23
2023-03-22T08:37:12.173Z,10.85
2023-03-22T08:39:40.208Z,12.20
2023-03-22T08:42:16.248Z,9.27
2023-03-22T08:44:43.714Z,6.25
2023-03-22T08:47:10.912Z,7.97
2023-03-22T08:49:38.936Z,10.18
2023-03-22T08:52:13.602Z,6.97
2023-03-22T08:55:01.287Z,10.45
2023-03-22T08:57:51.385Z,12.65
2023-03-22T09:00:48.585Z,9.15
2023-03-22T09:03:26.029Z,10.38
2023-03-22T09:05:53.680Z,10.90
2023-03-22T09:08:20.999Z,9.60
2023-03-22T09:10:54.329Z,14.13
2023-03-22T09:13:23.006Z,11.82
2023-03-22T09:15:56.170Z,11.10
2023-03-22T09:18:26.912Z,12.77
2023-03-22T09:20:57.256Z,24.95
2023-03-22T09:23:31.574Z,14.85
2023-03-22T09:26:02.872Z,8.60
2023-03-22T09:28:31.965Z,9.57
2023-03-22T09:31:06.638Z,8.18
2023-03-22T09:33:38.067Z,8.63
2023-03-22T09:36:06.527Z,6.30
2023-03-22T09:38:35.244Z,7.45
2023-03-22T09:41:06.857Z,7.53
2023-03-22T09:43:43.147Z,9.10
2023-03-22T09:46:45.379Z,9.13
2023-03-22T09:49:28.574Z,11.70
2023-03-22T09:51:56.310Z,8.52
2023-03-22T09:54:35.501Z,8.65
2023-03-22T10:00:31.768Z,12.27
2023-03-22T10:03:40.712Z,14.80
2023-03-22T10:06:16.210Z,8.10
2023-03-22T10:09:01.349Z,9.93
2023-03-22T10:11:45.783Z,6.95
2023-03-22T10:14:31.277Z,9.70
2023-03-22T10:17:05.016Z,3.92
2023-03-22T10:19:59.966Z,5.38
2023-03-22T10:22:34.115Z,4.15
2023-03-22T10:25:01.892Z,4.32
2023-03-22T10:27:31.072Z,7.22
2023-03-22T10:30:33.592Z,5.60
2023-03-22T10:33:10.925Z,4.13
2023-03-22T10:35:38.222Z,6.22
2023-03-22T10:38:08.878Z,7.22
2023-03-22T10:40:39.867Z,5.20
2023-03-22T10:43:35.032Z,6.10
2023-03-22T10:46:07.123Z,4.78
2023-03-22T10:48:41.999Z,6.28
2023-03-22T10:51:24.915Z,4.57
2023-03-22T10:53:54.965Z,7.32
2023-03-22T10:56:22.247Z,5.20
2023-03-22T10:58:50.790Z,3.15
2023-03-22T11:01:31.919Z,2.58
2023-03-22T11:04:12.264Z,3.60
2023-03-22T11:06:50.629Z,7.90
2023-03-22T11:09:23.863Z,4.53
2023-03-22T11:11:57.751Z,5.72
2023-03-22T11:14:36.207Z,9.25
2023-03-22T11:17:06.028Z,4.43
2023-03-22T11:19:49.673Z,5.80
2023-03-22T11:22:42.801Z,4.38
2023-03-22T11:25:26.654Z,5.68
2023-03-22T11:28:27.801Z,3.92
2023-03-22T11:31:10.410Z,4.47
2023-03-22T11:33:44.025Z,4.47
2023-03-22T11:36:18.665Z,3.45
2023-03-22T11:38:47.445Z,4.07
2023-03-22T11:41:23.879Z,3.40
2023-03-22T11:44:00.003Z,4.85
2023-03-22T11:46:29.083Z,5.07
2023-03-22T11:49:05.258Z,5.68
2023-03-22T11:51:36.882Z,5.25
2023-03-22T11:54:34.505Z,5.97
2023-03-22T11:57:08.935Z,6.18
2023-03-22T12:00:00.197Z,6.57
2023-03-22T12:02:31.182Z,5.95
2023-03-22T12:05:26.917Z,3.65
2023-03-22T12:08:21.321Z,5.45
2023-03-22T12:10:57.090Z,7.13
2023-03-22T12:13:34.114Z,7.35
2023-03-22T12:16:06.109Z,3.33
2023-03-22T12:18:39.217Z,4.72
2023-03-22T12:21:09.561Z,2.72
2023-03-22T12:23:37.391Z,6.18
2023-03-22T12:26:27.417Z,8.25
2023-03-22T12:29:17.752Z,3.38
2023-03-22T12:32:07.852Z,4.93
2023-03-22T12:34:46.142Z,7.60
2023-03-22T12:37:23.710Z,4.38
2023-03-22T12:40:05.503Z,3.60
2023-03-22T12:42:54.146Z,3.40
2023-03-22T12:45:28.668Z,4.65
2023-03-22T12:48:18.052Z,6.63
2023-03-22T12:50:57.492Z,3.38
